sensor_id;sensor_type;location;lat;lon;timestamp;pressure;altitude;pressure_sealevel;temperature;humidity
51468;BME280;37545;45.302;-122.946;2023-03-23T00:00:09;100333.31;;;18.37;40.55
51468;BME280;37545;45.302;-122.946;2023-03-23T00:02:40;100302.94;;;18.19;40.37
51468;BME280;37545;45.302;-122.946;2023-03-23T00:05:11;100324.69;;;18.29;40.50
51468;BME280;37545;45.302;-122.946;2023-03-23T00:07:40;100328.19;;;18.25;41.03
51468;BME280;37545;45.302;-122.946;2023-03-23T00:10:12;100329.91;;;18.27;41.22
51468;BME280;37545;45.302;-122.946;2023-03-23T00:12:42;100337.78;;;18.29;41.45
51468;BME280;37545;45.302;-122.946;2023-03-23T00:15:11;100349.09;;;18.29;41.84
51468;BME280;37545;45.302;-122.946;2023-03-23T00:17:43;100350.91;;;18.26;42.25
51468;BME280;37545;45.302;-122.946;2023-03-23T00:20:12;100355.31;;;18.17;42.46
51468;BME280;37545;45.302;-122.946;2023-03-23T00:22:42;100346.59;;;18.17;42.42
51468;BME280;37545;45.302;-122.946;2023-03-23T00:25:12;100344.03;;;18.12;42.04
51468;BME280;37545;45.302;-122.946;2023-03-23T00:27:43;100347.50;;;18.13;42.92
51468;BME280;37545;45.302;-122.946;2023-03-23T00:30:12;100352.72;;;18.14;42.23
51468;BME280;37545;45.302;-122.946;2023-03-23T00:32:42;100352.72;;;18.14;42.17
51468;BME280;37545;45.302;-122.946;2023-03-23T00:35:11;100354.44;;;18.18;42.83
51468;BME280;37545;45.302;-122.946;2023-03-23T00:37:39;100364.91;;;18.18;43.62
51468;BME280;37545;45.302;-122.946;2023-03-23T00:40:12;100372.78;;;18.15;43.43
51468;BME280;37545;45.302;-122.946;2023-03-23T00:42:42;100376.34;;;18.07;42.50
51468;BME280;37545;45.302;-122.946;2023-03-23T00:45:12;100370.31;;;17.97;41.53
51468;BME280;37545;45.302;-122.946;2023-03-23T00:47:41;100392.19;;;17.85;41.96
51468;BME280;37545;45.302;-122.946;2023-03-23T00:50:13;100392.22;;;17.73;43.70
51468;BME280;37545;45.302;-122.946;2023-03-23T00:52:43;100398.41;;;17.58;44.59
51468;BME280;37545;45.302;-122.946;2023-03-23T00:55:17;100407.19;;;17.48;45.25
51468;BME280;37545;45.302;-122.946;2023-03-23T00:57:46;100407.22;;;17.34;45.12
51468;BME280;37545;45.302;-122.946;2023-03-23T01:00:17;100413.44;;;17.11;44.51
51468;BME280;37545;45.302;-122.946;2023-03-23T01:02:47;100420.41;;;16.92;44.49
51468;BME280;37545;45.302;-122.946;2023-03-23T01:05:17;100426.56;;;16.82;45.37
51468;BME280;37545;45.302;-122.946;2023-03-23T01:07:47;100431.75;;;16.64;44.85
51468;BME280;37545;45.302;-122.946;2023-03-23T01:10:18;100439.59;;;16.45;44.71
51468;BME280;37545;45.302;-122.946;2023-03-23T01:12:47;100435.25;;;16.29;45.83
51468;BME280;37545;45.302;-122.946;2023-03-23T01:15:17;100450.88;;;16.26;45.60
51468;BME280;37545;45.302;-122.946;2023-03-23T01:17:51;100452.59;;;16.15;46.61
51468;BME280;37545;45.302;-122.946;2023-03-23T01:20:21;100449.09;;;16.03;46.97
51468;BME280;37545;45.302;-122.946;2023-03-23T01:22:50;100460.41;;;15.98;46.99
51468;BME280;37545;45.302;-122.946;2023-03-23T01:25:21;100451.66;;;15.89;46.18
51468;BME280;37545;45.302;-122.946;2023-03-23T01:27:49;100468.16;;;15.75;47.04
51468;BME280;37545;45.302;-122.946;2023-03-23T01:30:18;100480.25;;;15.63;46.84
51468;BME280;37545;45.302;-122.946;2023-03-23T01:32:47;100489.75;;;15.52;47.71
51468;BME280;37545;45.302;-122.946;2023-03-23T01:35:16;100483.59;;;15.38;47.40
51468;BME280;37545;45.302;-122.946;2023-03-23T01:37:44;100489.63;;;15.26;47.65
51468;BME280;37545;45.302;-122.946;2023-03-23T01:40:14;100494.75;;;15.14;47.88
51468;BME280;37545;45.302;-122.946;2023-03-23T01:42:45;100501.59;;;14.99;47.92
51468;BME280;37545;45.302;-122.946;2023-03-23T01:45:24;100502.38;;;14.87;48.70
51468;BME280;37545;45.302;-122.946;2023-03-23T01:48:07;100489.16;;;14.63;48.47
51468;BME280;37545;45.302;-122.946;2023-03-23T01:50:42;100509.09;;;14.61;49.60
51468;BME280;37545;45.302;-122.946;2023-03-23T01:53:12;100524.69;;;14.58;49.97
51468;BME280;37545;45.302;-122.946;2023-03-23T01:55:43;100524.59;;;14.52;50.33
51468;BME280;37545;45.302;-122.946;2023-03-23T01:58:20;100524.50;;;14.42;50.83
51468;BME280;37545;45.302;-122.946;2023-03-23T02:00:53;100531.31;;;14.31;51.41
51468;BME280;37545;45.302;-122.946;2023-03-23T02:03:23;100541.69;;;14.25;51.73
51468;BME280;37545;45.302;-122.946;2023-03-23T02:05:54;100549.38;;;14.14;51.70
51468;BME280;37545;45.302;-122.946;2023-03-23T02:08:25;100557.06;;;14.05;51.23
51468;BME280;37545;45.302;-122.946;2023-03-23T02:10:54;100558.75;;;14.00;52.07
51468;BME280;37545;45.302;-122.946;2023-03-23T02:13:25;100562.97;;;13.92;52.08
51468;BME280;37545;45.302;-122.946;2023-03-23T02:16:02;100569.78;;;13.82;52.31
51468;BME280;37545;45.302;-122.946;2023-03-23T02:18:44;100582.69;;;13.76;52.51
51468;BME280;37545;45.302;-122.946;2023-03-23T02:24:52;100582.47;;;13.59;53.96
51468;BME280;37545;45.302;-122.946;2023-03-23T02:27:56;100584.94;;;13.51;54.09
51468;BME280;37545;45.302;-122.946;2023-03-23T02:30:46;100591.72;;;13.41;54.83
51468;BME280;37545;45.302;-122.946;2023-03-23T02:33:30;100592.44;;;13.31;55.31
51468;BME280;37545;45.302;-122.946;2023-03-23T02:36:08;100587.00;;;13.19;55.64
51468;BME280;37545;45.302;-122.946;2023-03-23T02:38:44;100591.16;;;13.06;56.27
51468;BME280;37545;45.302;-122.946;2023-03-23T02:41:19;100610.22;;;13.10;56.36
51468;BME280;37545;45.302;-122.946;2023-03-23T02:43:50;100609.22;;;13.00;56.74
51468;BME280;37545;45.302;-122.946;2023-03-23T02:46:21;100602.16;;;12.93;56.82
51468;BME280;37545;45.302;-122.946;2023-03-23T02:48:54;100618.63;;;12.93;57.11
51468;BME280;37545;45.302;-122.946;2023-03-23T02:51:24;100619.38;;;12.86;57.79
51468;BME280;37545;45.302;-122.946;2023-03-23T02:53:55;100628.81;;;12.83;57.46
51468;BME280;37545;45.302;-122.946;2023-03-23T02:56:26;100630.44;;;12.77;58.23
51468;BME280;37545;45.302;-122.946;2023-03-23T02:58:56;100642.53;;;12.75;58.14
51468;BME280;37545;45.302;-122.946;2023-03-23T03:02:07;100647.56;;;12.68;58.54
51468;BME280;37545;45.302;-122.946;2023-03-23T03:04:40;100643.06;;;12.59;58.54
51468;BME280;37545;45.302;-122.946;2023-03-23T03:07:33;100661.25;;;12.57;59.28
51468;BME280;37545;45.302;-122.946;2023-03-23T03:10:09;100653.28;;;12.50;59.87
51468;BME280;37545;45.302;-122.946;2023-03-23T03:12:46;100667.94;;;12.48;60.68
51468;BME280;37545;45.302;-122.946;2023-03-23T03:15:23;100675.69;;;12.45;60.75
51468;BME280;37545;45.302;-122.946;2023-03-23T03:17:59;100673.91;;;12.44;61.03
51468;BME280;37545;45.302;-122.946;2023-03-23T03:20:33;100682.50;;;12.40;61.59
51468;BME280;37545;45.302;-122.946;2023-03-23T03:23:04;100680.69;;;12.35;61.60
51468;BME280;37545;45.302;-122.946;2023-03-23T03:25:36;100685.81;;;12.32;62.00
51468;BME280;37545;45.302;-122.946;2023-03-23T03:28:07;100673.44;;;12.21;62.15
51468;BME280;37545;45.302;-122.946;2023-03-23T03:30:37;100682.13;;;12.23;62.15
51468;BME280;37545;45.302;-122.946;2023-03-23T03:33:06;100681.97;;;12.15;62.52
51468;BME280;37545;45.302;-122.946;2023-03-23T03:35:38;100691.38;;;12.11;62.82
51468;BME280;37545;45.302;-122.946;2023-03-23T03:38:10;100693.78;;;12.02;63.53
51468;BME280;37545;45.302;-122.946;2023-03-23T03:40:39;100704.94;;;11.98;63.35
51468;BME280;37545;45.302;-122.946;2023-03-23T03:43:08;100702.25;;;11.93;63.86
51468;BME280;37545;45.302;-122.946;2023-03-23T03:45:37;100710.78;;;11.89;63.83
51468;BME280;37545;45.302;-122.946;2023-03-23T03:48:07;100714.97;;;11.86;63.81
51468;BME280;37545;45.302;-122.946;2023-03-23T03:50:38;100721.81;;;11.82;64.27
51468;BME280;37545;45.302;-122.946;2023-03-23T03:53:06;100720.03;;;11.80;64.09
51468;BME280;37545;45.302;-122.946;2023-03-23T03:55:36;100729.50;;;11.78;64.25
51468;BME280;37545;45.302;-122.946;2023-03-23T03:58:05;100724.19;;;11.73;64.82
51468;BME280;37545;45.302;-122.946;2023-03-23T04:00:34;100731.91;;;11.71;64.91
51468;BME280;37545;45.302;-122.946;2023-03-23T04:03:03;100732.78;;;11.72;64.55
51468;BME280;37545;45.302;-122.946;2023-03-23T04:05:33;100724.09;;;11.70;64.67
51468;BME280;37545;45.302;-122.946;2023-03-23T04:08:11;100732.72;;;11.69;64.51
51468;BME280;37545;45.302;-122.946;2023-03-23T04:10:40;100733.47;;;11.65;64.05
51468;BME280;37545;45.302;-122.946;2023-03-23T04:13:12;100729.91;;;11.60;64.46
51468;BME280;37545;45.302;-122.946;2023-03-23T04:15:41;100744.59;;;11.61;64.80
51468;BME280;37545;45.302;-122.946;2023-03-23T04:18:10;100732.34;;;11.53;64.63
51468;BME280;37545;45.302;-122.946;2023-03-23T04:20:39;100753.13;;;11.57;64.97
51468;BME280;37545;45.302;-122.946;2023-03-23T04:23:07;100739.94;;;11.47;64.75
51468;BME280;37545;45.302;-122.946;2023-03-23T04:25:38;100750.34;;;11.49;65.13
51468;BME280;37545;45.302;-122.946;2023-03-23T04:28:08;100751.16;;;11.46;64.74
51468;BME280;37545;45.302;-122.946;2023-03-23T04:30:37;100756.41;;;11.48;64.92
51468;BME280;37545;45.302;-122.946;2023-03-23T04:33:09;100755.47;;;11.46;65.26
51468;BME280;37545;45.302;-122.946;2023-03-23T04:35:41;100762.31;;;11.44;64.77
51468;BME280;37545;45.302;-122.946;2023-03-23T04:38:12;100764.81;;;11.39;65.01
51468;BME280;37545;45.302;-122.946;2023-03-23T04:40:44;100762.97;;;11.35;65.85
51468;BME280;37545;45.302;-122.946;2023-03-23T04:43:13;100765.59;;;11.37;65.50
51468;BME280;37545;45.302;-122.946;2023-03-23T04:45:41;100778.50;;;11.35;66.42
51468;BME280;37545;45.302;-122.946;2023-03-23T04:48:12;100781.97;;;11.36;66.69
51468;BME280;37545;45.302;-122.946;2023-03-23T04:50:41;100785.44;;;11.36;67.04
51468;BME280;37545;45.302;-122.946;2023-03-23T04:53:10;100782.75;;;11.31;68.26
51468;BME280;37545;45.302;-122.946;2023-03-23T04:55:38;100782.47;;;11.22;69.11
51468;BME280;37545;45.302;-122.946;2023-03-23T04:58:09;100783.38;;;11.23;70.62
51468;BME280;37545;45.302;-122.946;2023-03-23T05:00:38;100792.06;;;11.25;70.88
51468;BME280;37545;45.302;-122.946;2023-03-23T05:03:10;100798.97;;;11.26;71.21
51468;BME280;37545;45.302;-122.946;2023-03-23T05:05:42;100799.81;;;11.25;71.42
51468;BME280;37545;45.302;-122.946;2023-03-23T05:08:13;100801.38;;;11.20;71.84
51468;BME280;37545;45.302;-122.946;2023-03-23T05:10:50;100813.53;;;11.22;72.09
51468;BME280;37545;45.302;-122.946;2023-03-23T05:13:22;100810.94;;;11.21;72.23
51468;BME280;37545;45.302;-122.946;2023-03-23T05:15:51;100825.59;;;11.20;71.99
51468;BME280;37545;45.302;-122.946;2023-03-23T05:18:20;100819.44;;;11.17;73.38
51468;BME280;37545;45.302;-122.946;2023-03-23T05:20:49;100822.66;;;11.08;73.26
51468;BME280;37545;45.302;-122.946;2023-03-23T05:23:19;100824.19;;;11.01;73.71
51468;BME280;37545;45.302;-122.946;2023-03-23T05:25:53;100828.44;;;10.99;73.69
51468;BME280;37545;45.302;-122.946;2023-03-23T05:28:24;100829.22;;;10.97;73.88
51468;BME280;37545;45.302;-122.946;2023-03-23T05:30:53;100831.69;;;10.92;74.37
51468;BME280;37545;45.302;-122.946;2023-03-23T05:33:23;100844.72;;;10.95;74.55
51468;BME280;37545;45.302;-122.946;2023-03-23T05:35:52;100842.03;;;10.92;74.07
51468;BME280;37545;45.302;-122.946;2023-03-23T05:38:21;100834.91;;;10.85;74.55
51468;BME280;37545;45.302;-122.946;2023-03-23T05:40:50;100855.81;;;10.91;74.09
51468;BME280;37545;45.302;-122.946;2023-03-23T05:43:19;100848.84;;;10.88;74.29
51468;BME280;37545;45.302;-122.946;2023-03-23T05:45:49;100854.91;;;10.89;73.95
51468;BME280;37545;45.302;-122.946;2023-03-23T05:48:18;100857.44;;;10.87;74.68
51468;BME280;37545;45.302;-122.946;2023-03-23T05:50:48;100860.81;;;10.85;74.87
51468;BME280;37545;45.302;-122.946;2023-03-23T05:53:17;100857.22;;;10.80;74.61
51468;BME280;37545;45.302;-122.946;2023-03-23T05:55:46;100866.78;;;10.82;74.44
51468;BME280;37545;45.302;-122.946;2023-03-23T05:58:15;100870.97;;;10.79;74.48
51468;BME280;37545;45.302;-122.946;2023-03-23T06:00:44;100868.28;;;10.76;75.09
51468;BME280;37545;45.302;-122.946;2023-03-23T06:03:15;100864.75;;;10.72;74.81
51468;BME280;37545;45.302;-122.946;2023-03-23T06:05:43;100869.88;;;10.71;75.45
51468;BME280;37545;45.302;-122.946;2023-03-23T06:08:12;100867.94;;;10.63;75.55
51468;BME280;37545;45.302;-122.946;2023-03-23T06:10:41;100874.84;;;10.64;75.19
51468;BME280;37545;45.302;-122.946;2023-03-23T06:13:10;100873.88;;;10.61;75.49
51468;BME280;37545;45.302;-122.946;2023-03-23T06:15:39;100878.13;;;10.59;75.40
51468;BME280;37545;45.302;-122.946;2023-03-23T06:18:08;100870.38;;;10.59;75.01
51468;BME280;37545;45.302;-122.946;2023-03-23T06:20:38;100876.41;;;10.59;74.36
51468;BME280;37545;45.302;-122.946;2023-03-23T06:23:08;100872.03;;;10.57;73.59
51468;BME280;37545;45.302;-122.946;2023-03-23T06:25:37;100872.81;;;10.54;73.41
51468;BME280;37545;45.302;-122.946;2023-03-23T06:28:07;100877.84;;;10.50;73.69
51468;BME280;37545;45.302;-122.946;2023-03-23T06:30:37;100872.63;;;10.48;74.05
51468;BME280;37545;45.302;-122.946;2023-03-23T06:33:06;100876.91;;;10.47;73.75
51468;BME280;37545;45.302;-122.946;2023-03-23T06:35:37;100873.47;;;10.47;72.63
51468;BME280;37545;45.302;-122.946;2023-03-23T06:38:06;100877.72;;;10.46;73.14
51468;BME280;37545;45.302;-122.946;2023-03-23T06:40:35;100876.00;;;10.45;72.85
51468;BME280;37545;45.302;-122.946;2023-03-23T06:43:04;100880.28;;;10.45;72.36
51468;BME280;37545;45.302;-122.946;2023-03-23T06:45:32;100879.34;;;10.43;72.80
51468;BME280;37545;45.302;-122.946;2023-03-23T06:48:01;100883.66;;;10.42;72.37
51468;BME280;37545;45.302;-122.946;2023-03-23T06:50:30;100894.88;;;10.43;72.88
51468;BME280;37545;45.302;-122.946;2023-03-23T06:53:00;100881.88;;;10.41;72.42
51468;BME280;37545;45.302;-122.946;2023-03-23T06:55:29;100877.50;;;10.39;72.64
51468;BME280;37545;45.302;-122.946;2023-03-23T06:57:58;100887.84;;;10.39;72.24
51468;BME280;37545;45.302;-122.946;2023-03-23T07:00:27;100881.75;;;10.37;72.83
51468;BME280;37545;45.302;-122.946;2023-03-23T07:03:02;100882.59;;;10.36;72.86
51468;BME280;37545;45.302;-122.946;2023-03-23T07:05:32;100877.28;;;10.33;71.43
51468;BME280;37545;45.302;-122.946;2023-03-23T07:08:03;100882.53;;;10.34;71.70
51468;BME280;37545;45.302;-122.946;2023-03-23T07:10:32;100892.00;;;10.34;72.41
51468;BME280;37545;45.302;-122.946;2023-03-23T07:13:00;100889.34;;;10.32;71.47
51468;BME280;37545;45.302;-122.946;2023-03-23T07:15:29;100886.69;;;10.29;70.72
51468;BME280;37545;45.302;-122.946;2023-03-23T07:17:58;100889.25;;;10.29;71.39
51468;BME280;37545;45.302;-122.946;2023-03-23T07:20:27;100889.16;;;10.27;71.92
51468;BME280;37545;45.302;-122.946;2023-03-23T07:22:56;100883.03;;;10.24;71.44
51468;BME280;37545;45.302;-122.946;2023-03-23T07:25:26;100898.44;;;10.21;71.36
51468;BME280;37545;45.302;-122.946;2023-03-23T07:27:55;100902.63;;;10.17;70.94
51468;BME280;37545;45.302;-122.946;2023-03-23T07:30:24;100898.13;;;10.12;71.00
51468;BME280;37545;45.302;-122.946;2023-03-23T07:32:52;100898.91;;;10.09;71.71
51468;BME280;37545;45.302;-122.946;2023-03-23T07:35:22;100903.84;;;10.03;72.02
51468;BME280;37545;45.302;-122.946;2023-03-23T07:37:50;100913.09;;;9.96;72.89
51468;BME280;37545;45.302;-122.946;2023-03-23T07:40:20;100921.47;;;9.89;73.62
51468;BME280;37545;45.302;-122.946;2023-03-23T07:42:55;100930.84;;;9.85;73.61
51468;BME280;37545;45.302;-122.946;2023-03-23T07:45:24;100926.06;;;9.72;74.94
51468;BME280;37545;45.302;-122.946;2023-03-23T07:47:53;100925.78;;;9.64;76.38
51468;BME280;37545;45.302;-122.946;2023-03-23T07:50:21;100925.47;;;9.55;77.45
51468;BME280;37545;45.302;-122.946;2023-03-23T07:52:51;100913.91;;;9.46;77.46
51468;BME280;37545;45.302;-122.946;2023-03-23T07:55:20;100921.78;;;9.49;77.99
51468;BME280;37545;45.302;-122.946;2023-03-23T07:57:53;100924.41;;;9.50;77.63
51468;BME280;37545;45.302;-122.946;2023-03-23T08:00:23;100924.38;;;9.49;78.31
51468;BME280;37545;45.302;-122.946;2023-03-23T08:02:53;100923.47;;;9.48;78.72
51468;BME280;37545;45.302;-122.946;2023-03-23T08:05:24;100923.47;;;9.48;79.12
51468;BME280;37545;45.302;-122.946;2023-03-23T08:07:54;100920.84;;;9.47;78.79
51468;BME280;37545;45.302;-122.946;2023-03-23T08:10:23;100902.44;;;9.37;79.41
51468;BME280;37545;45.302;-122.946;2023-03-23T08:12:56;100911.22;;;9.42;79.46
51468;BME280;37545;45.302;-122.946;2023-03-23T08:15:26;100929.41;;;9.46;79.55
51468;BME280;37545;45.302;-122.946;2023-03-23T08:17:55;100919.84;;;9.43;80.18
51468;BME280;37545;45.302;-122.946;2023-03-23T08:20:24;100931.03;;;9.43;79.86
51468;BME280;37545;45.302;-122.946;2023-03-23T08:22:54;100935.31;;;9.43;79.72
51468;BME280;37545;45.302;-122.946;2023-03-23T08:25:23;100935.28;;;9.41;79.52
51468;BME280;37545;45.302;-122.946;2023-03-23T08:27:54;100933.19;;;9.31;79.35
51468;BME280;37545;45.302;-122.946;2023-03-23T08:30:23;100938.59;;;9.37;80.04
51468;BME280;37545;45.302;-122.946;2023-03-23T08:32:55;100944.69;;;9.39;79.92
51468;BME280;37545;45.302;-122.946;2023-03-23T08:35:24;100949.78;;;9.38;78.75
51468;BME280;37545;45.302;-122.946;2023-03-23T08:37:53;100946.31;;;9.37;78.01
51468;BME280;37545;45.302;-122.946;2023-03-23T08:40:23;100954.84;;;9.35;77.78
51468;BME280;37545;45.302;-122.946;2023-03-23T08:42:54;100950.56;;;9.35;77.54
51468;BME280;37545;45.302;-122.946;2023-03-23T08:45:24;100952.38;;;9.38;77.47
51468;BME280;37545;45.302;-122.946;2023-03-23T08:47:54;100955.81;;;9.38;76.91
51468;BME280;37545;45.302;-122.946;2023-03-23T08:50:24;100958.41;;;9.38;76.02
51468;BME280;37545;45.302;-122.946;2023-03-23T08:52:54;100960.03;;;9.36;76.25
51468;BME280;37545;45.302;-122.946;2023-03-23T08:55:22;100962.59;;;9.35;75.66
51468;BME280;37545;45.302;-122.946;2023-03-23T08:57:54;100970.28;;;9.33;76.03
51468;BME280;37545;45.302;-122.946;2023-03-23T09:00:24;100964.22;;;9.33;75.47
51468;BME280;37545;45.302;-122.946;2023-03-23T09:02:54;100965.94;;;9.32;76.15
51468;BME280;37545;45.302;-122.946;2023-03-23T09:05:25;100957.34;;;9.33;75.14
51468;BME280;37545;45.302;-122.946;2023-03-23T09:07:58;100957.44;;;9.35;74.69
51468;BME280;37545;45.302;-122.946;2023-03-23T09:10:27;100966.03;;;9.35;73.47
51468;BME280;37545;45.302;-122.946;2023-03-23T09:12:58;100959.16;;;9.36;73.58
51468;BME280;37545;45.302;-122.946;2023-03-23T09:15:27;100945.06;;;9.28;72.51
51468;BME280;37545;45.302;-122.946;2023-03-23T09:17:55;100967.88;;;9.38;73.05
51468;BME280;37545;45.302;-122.946;2023-03-23T09:20:26;100974.75;;;9.37;73.03
51468;BME280;37545;45.302;-122.946;2023-03-23T09:22:56;100973.72;;;9.34;72.61
51468;BME280;37545;45.302;-122.946;2023-03-23T09:25:26;100984.88;;;9.33;72.73
51468;BME280;37545;45.302;-122.946;2023-03-23T09:27:58;100977.91;;;9.30;73.21
51468;BME280;37545;45.302;-122.946;2023-03-23T09:30:28;100981.28;;;9.29;73.99
51468;BME280;37545;45.302;-122.946;2023-03-23T09:32:59;100983.88;;;9.29;73.38
51468;BME280;37545;45.302;-122.946;2023-03-23T09:35:29;100983.88;;;9.29;74.03
51468;BME280;37545;45.302;-122.946;2023-03-23T09:37:58;100983.00;;;9.29;73.86
51468;BME280;37545;45.302;-122.946;2023-03-23T09:40:30;100978.59;;;9.26;74.16
51468;BME280;37545;45.302;-122.946;2023-03-23T09:43:25;100978.59;;;9.26;74.24
51468;BME280;37545;45.302;-122.946;2023-03-23T09:46:04;100976.81;;;9.25;75.55
51468;BME280;37545;45.302;-122.946;2023-03-23T09:48:44;100980.34;;;9.27;75.63
51468;BME280;37545;45.302;-122.946;2023-03-23T09:51:22;100976.97;;;9.28;76.00
51468;BME280;37545;45.302;-122.946;2023-03-23T09:54:01;100979.41;;;9.25;76.48
51468;BME280;37545;45.302;-122.946;2023-03-23T09:56:33;100975.78;;;9.20;76.18
51468;BME280;37545;45.302;-122.946;2023-03-23T09:59:12;100981.06;;;9.23;76.11
51468;BME280;37545;45.302;-122.946;2023-03-23T10:01:45;100985.41;;;9.24;75.93
51468;BME280;37545;45.302;-122.946;2023-03-23T10:04:23;100982.72;;;9.21;76.49
51468;BME280;37545;45.302;-122.946;2023-03-23T10:06:54;100977.50;;;9.19;75.27
51468;BME280;37545;45.302;-122.946;2023-03-23T10:09:25;100983.41;;;9.17;75.67
51468;BME280;37545;45.302;-122.946;2023-03-23T10:12:00;100979.03;;;9.14;75.08
51468;BME280;37545;45.302;-122.946;2023-03-23T10:14:44;100983.06;;;9.08;75.71
51468;BME280;37545;45.302;-122.946;2023-03-23T10:17:22;100976.78;;;9.01;75.36
51468;BME280;37545;45.302;-122.946;2023-03-23T10:19:56;100983.50;;;8.97;76.27
51468;BME280;37545;45.302;-122.946;2023-03-23T10:22:32;100981.50;;;8.90;75.87
51468;BME280;37545;45.302;-122.946;2023-03-23T10:25:15;100979.63;;;8.86;76.50
51468;BME280;37545;45.302;-122.946;2023-03-23T10:27:48;100983.72;;;8.81;76.67
51468;BME280;37545;45.302;-122.946;2023-03-23T10:30:25;100976.81;;;8.80;77.44
51468;BME280;37545;45.302;-122.946;2023-03-23T10:33:00;100992.16;;;8.77;77.76
51468;BME280;37545;45.302;-122.946;2023-03-23T10:35:34;100978.31;;;8.75;77.69
51468;BME280;37545;45.302;-122.946;2023-03-23T10:38:10;100988.63;;;8.75;78.15
51468;BME280;37545;45.302;-122.946;2023-03-23T10:40:57;100986.88;;;8.74;78.00
51468;BME280;37545;45.302;-122.946;2023-03-23T10:43:28;100988.63;;;8.75;77.52
51468;BME280;37545;45.302;-122.946;2023-03-23T10:46:02;100998.81;;;8.72;78.60
51468;BME280;37545;45.302;-122.946;2023-03-23T10:48:33;100990.13;;;8.70;78.99
51468;BME280;37545;45.302;-122.946;2023-03-23T10:51:09;101003.03;;;8.70;78.62
51468;BME280;37545;45.302;-122.946;2023-03-23T10:53:42;100993.66;;;8.72;78.71
51468;BME280;37545;45.302;-122.946;2023-03-23T10:56:23;100998.81;;;8.72;78.16
51468;BME280;37545;45.302;-122.946;2023-03-23T10:58:54;101002.25;;;8.71;78.42
51468;BME280;37545;45.302;-122.946;2023-03-23T11:01:32;101003.97;;;8.72;79.67
51468;BME280;37545;45.302;-122.946;2023-03-23T11:04:01;101007.41;;;8.71;80.17
51468;BME280;37545;45.302;-122.946;2023-03-23T11:06:32;101003.88;;;8.69;81.41
51468;BME280;37545;45.302;-122.946;2023-03-23T11:09:11;101002.06;;;8.66;82.73
51468;BME280;37545;45.302;-122.946;2023-03-23T11:11:43;100999.41;;;8.65;83.87
51468;BME280;37545;45.302;-122.946;2023-03-23T11:14:17;101002.66;;;8.60;84.36
51468;BME280;37545;45.302;-122.946;2023-03-23T11:16:52;101001.72;;;8.58;85.57
51468;BME280;37545;45.302;-122.946;2023-03-23T11:19:27;100998.06;;;8.53;86.65
51468;BME280;37545;45.302;-122.946;2023-03-23T11:21:58;100997.13;;;8.51;88.81
51468;BME280;37545;45.302;-122.946;2023-03-23T11:24:30;100994.44;;;8.48;88.32
51468;BME280;37545;45.302;-122.946;2023-03-23T11:27:00;100989.00;;;8.42;89.70
51468;BME280;37545;45.302;-122.946;2023-03-23T11:29:31;100995.78;;;8.40;89.79
51468;BME280;37545;45.302;-122.946;2023-03-23T11:32:06;100996.41;;;8.34;90.93
51468;BME280;37545;45.302;-122.946;2023-03-23T11:34:41;100994.31;;;8.26;91.08
51468;BME280;37545;45.302;-122.946;2023-03-23T11:37:13;100990.50;;;8.17;93.01
51468;BME280;37545;45.302;-122.946;2023-03-23T11:39:48;100991.06;;;8.10;93.27
51468;BME280;37545;45.302;-122.946;2023-03-23T11:42:20;100988.25;;;8.04;94.24
51468;BME280;37545;45.302;-122.946;2023-03-23T11:44:49;100987.13;;;7.99;93.28
51468;BME280;37545;45.302;-122.946;2023-03-23T11:47:24;100996.38;;;7.94;93.52
51468;BME280;37545;45.302;-122.946;2023-03-23T11:49:59;100999.56;;;7.88;94.36
51468;BME280;37545;45.302;-122.946;2023-03-23T11:52:38;100989.72;;;7.80;94.91
51468;BME280;37545;45.302;-122.946;2023-03-23T11:55:25;100982.53;;;7.72;95.22
51468;BME280;37545;45.302;-122.946;2023-03-23T11:57:55;101001.97;;;7.85;96.16
51468;BME280;37545;45.302;-122.946;2023-03-23T12:00:28;100999.56;;;7.88;95.87
51468;BME280;37545;45.302;-122.946;2023-03-23T12:03:34;101007.41;;;7.91;95.70
51468;BME280;37545;45.302;-122.946;2023-03-23T12:06:11;101008.38;;;7.93;95.35
51468;BME280;37545;45.302;-122.946;2023-03-23T12:08:59;101011.03;;;7.95;95.85
51468;BME280;37545;45.302;-122.946;2023-03-23T12:11:39;101007.53;;;7.94;96.26
51468;BME280;37545;45.302;-122.946;2023-03-23T12:14:17;101001.50;;;7.94;96.18
51468;BME280;37545;45.302;-122.946;2023-03-23T12:16:58;101009.13;;;7.91;96.29
51468;BME280;37545;45.302;-122.946;2023-03-23T12:19:43;101008.25;;;7.90;97.11
51468;BME280;37545;45.302;-122.946;2023-03-23T12:22:27;101000.22;;;7.84;96.41
51468;BME280;37545;45.302;-122.946;2023-03-23T12:25:12;100999.06;;;7.78;96.29
51468;BME280;37545;45.302;-122.946;2023-03-23T12:27:49;100991.91;;;7.70;96.08
51468;BME280;37545;45.302;-122.946;2023-03-23T12:30:32;101001.38;;;7.71;96.62
51468;BME280;37545;45.302;-122.946;2023-03-23T12:33:24;101004.84;;;7.72;96.23
51468;BME280;37545;45.302;-122.946;2023-03-23T12:36:08;100994.47;;;7.70;97.03
51468;BME280;37545;45.302;-122.946;2023-03-23T12:38:49;100995.34;;;7.71;96.94
51468;BME280;37545;45.302;-122.946;2023-03-23T12:41:24;100991.03;;;7.70;96.36
51468;BME280;37545;45.302;-122.946;2023-03-23T12:44:00;100984.91;;;7.68;95.66
51468;BME280;37545;45.302;-122.946;2023-03-23T12:47:03;100990.94;;;7.68;96.10
51468;BME280;37545;45.302;-122.946;2023-03-23T12:49:37;100990.13;;;7.69;97.42
51468;BME280;37545;45.302;-122.946;2023-03-23T12:52:15;100998.00;;;7.72;96.75
51468;BME280;37545;45.302;-122.946;2023-03-23T12:54:50;100997.38;;;7.78;95.45